Time;durP1;ratioP1;P1;durP2;ratioP2;P2;SDS_P1;SDS_P2;PMS_P1;PMS_P2;Temp;Humidity;BMP_temperature;BMP_pressure;BME280_temperature;BME280_humidity;BME280_pressure;Samples;Min_cycle;Max_cycle;Signal;HPM_P1;HPM_P2
2022/07/31 00:02:08;;;;;;;7.53;3.53;;;;;;;18.45;100.00;101772.88;6181998;23;20241;-76
2022/07/31 00:04:36;;;;;;;3.72;3.05;;;;;;;18.44;100.00;101773.78;6184069;23;20051;-76
2022/07/31 00:07:05;;;;;;;4.95;3.45;;;;;;;18.42;100.00;101778.28;6154951;23;20017;-77
2022/07/31 00:09:33;;;;;;;8.45;3.58;;;;;;;18.41;100.00;101771.16;6185857;23;20109;-76
2022/07/31 00:12:21;;;;;;;4.10;3.40;;;;;;;18.39;100.00;101771.22;6204146;23;20021;-77
2022/07/31 00:14:50;;;;;;;3.95;3.55;;;;;;;18.40;100.00;101766.75;6175289;23;20324;-77
2022/07/31 00:17:18;;;;;;;3.42;3.10;;;;;;;18.39;100.00;101765.88;6183115;23;20343;-77
2022/07/31 00:19:47;;;;;;;4.60;3.17;;;;;;;18.40;100.00;101766.75;6181578;23;20454;-77
2022/07/31 00:22:15;;;;;;;9.43;3.75;;;;;;;18.39;100.00;101764.97;6184497;23;20466;-77
2022/07/31 00:24:44;;;;;;;6.03;3.08;;;;;;;18.37;100.00;101775.66;6160507;23;20465;-76
2022/07/31 00:27:12;;;;;;;4.45;3.40;;;;;;;18.37;100.00;101766.78;6182042;23;20490;-76
2022/07/31 00:29:41;;;;;;;5.28;3.15;;;;;;;18.35;100.00;101769.47;6143324;23;20017;-77
2022/07/31 00:32:10;;;;;;;6.07;3.42;;;;;;;18.35;100.00;101763.25;6180615;23;20059;-77
2022/07/31 00:34:38;;;;;;;3.97;2.97;;;;;;;18.34;100.00;101766.84;6181853;23;20032;-77
2022/07/31 00:37:07;;;;;;;4.18;3.65;;;;;;;18.35;100.00;101755.25;6179865;23;20231;-77
2022/07/31 00:39:37;;;;;;;4.95;2.80;;;;;;;18.34;100.00;101762.38;6153477;23;20028;-77
2022/07/31 00:42:16;;;;;;;3.53;3.20;;;;;;;18.34;100.00;101758.84;6204228;23;20582;-77
2022/07/31 00:44:45;;;;;;;5.90;3.42;;;;;;;18.33;100.00;101757.94;6169856;23;20027;-76
2022/07/31 00:47:17;;;;;;;3.67;3.20;;;;;;;18.33;100.00;101760.59;6181333;23;20032;-76
2022/07/31 00:49:51;;;;;;;7.25;3.35;;;;;;;18.33;100.00;101751.72;6175169;23;20489;-77
2022/07/31 00:52:20;;;;;;;5.10;2.97;;;;;;;18.33;100.00;101749.03;6158297;23;20032;-76
2022/07/31 00:54:48;;;;;;;3.38;2.92;;;;;;;18.33;100.00;101751.72;6154103;23;20021;-76
2022/07/31 00:57:17;;;;;;;4.18;3.78;;;;;;;18.32;100.00;101753.50;6183133;23;20028;-77
2022/07/31 00:59:45;;;;;;;4.78;3.08;;;;;;;18.29;100.00;101749.09;6182147;23;20343;-77
2022/07/31 01:02:14;;;;;;;3.50;3.20;;;;;;;18.31;100.00;101743.72;6167229;23;20013;-77
2022/07/31 01:04:43;;;;;;;4.43;3.67;;;;;;;18.29;100.00;101749.09;6179187;23;20024;-76
2022/07/31 01:07:13;;;;;;;3.70;3.20;;;;;;;18.30;100.00;101744.66;6180666;23;20521;-77
2022/07/31 01:09:41;;;;;;;3.67;3.20;;;;;;;18.29;100.00;101746.41;6134337;23;20021;-76
2022/07/31 01:12:19;;;;;;;4.30;3.20;;;;;;;18.29;100.00;101746.41;6196311;23;20013;-77
2022/07/31 01:14:53;;;;;;;3.97;3.58;;;;;;;18.29;100.00;101743.75;6180152;23;20021;-77
2022/07/31 01:17:22;;;;;;;4.03;3.63;;;;;;;18.28;100.00;101735.78;6202918;23;20017;-76
2022/07/31 01:19:51;;;;;;;4.50;3.47;;;;;;;18.26;100.00;101733.13;6153665;23;20031;-77
2022/07/31 01:22:59;;;;;;;8.15;3.55;;;;;;;18.25;100.00;101736.69;6147500;23;20073;-76
2022/07/31 01:26:12;;;;;;;5.88;3.85;;;;;;;18.25;100.00;101733.16;6160688;23;20021;-76
2022/07/31 01:29:08;;;;;;;6.57;3.45;;;;;;;18.22;100.00;101731.44;6179178;23;20323;-76
2022/07/31 01:31:43;;;;;;;4.07;2.97;;;;;;;18.20;100.00;101729.66;6173401;23;20016;-76
2022/07/31 01:34:24;;;;;;;5.03;3.53;;;;;;;18.19;100.00;101722.59;6140847;23;20025;-77
2022/07/31 01:37:19;;;;;;;4.15;3.78;;;;;;;18.16;100.00;101726.16;6177380;23;20024;-77
2022/07/31 01:40:30;;;;;;;3.67;3.38;;;;;;;18.13;100.00;101723.56;6178682;23;20021;-76
2022/07/31 01:43:07;;;;;;;;;;;;;;;18.12;100.00;101727.97;6130331;23;20670;-76
2022/07/31 01:45:39;;;;;;;4.88;3.53;;;;;;;18.10;100.00;101724.47;6183327;23;19927;-77
2022/07/31 01:48:13;;;;;;;4.18;3.22;;;;;;;18.08;100.00;101722.72;6175386;23;20025;-76
2022/07/31 01:50:45;;;;;;;3.50;3.20;;;;;;;18.06;100.00;101719.19;6181111;23;20028;-76
2022/07/31 01:53:19;;;;;;;5.22;3.22;;;;;;;18.05;100.00;101713.00;6181718;23;20044;-76
2022/07/31 01:55:51;;;;;;;4.10;3.00;;;;;;;18.03;100.00;101708.56;6179080;23;20028;-76
2022/07/31 01:58:36;;;;;;;3.65;3.30;;;;;;;18.02;100.00;101701.50;6156931;23;20024;-76
2022/07/31 02:01:13;;;;;;;2.80;2.60;;;;;;;17.99;100.00;101707.72;6172078;23;20234;-76
2022/07/31 02:03:44;;;;;;;5.93;3.78;;;;;;;17.98;100.00;101705.97;6173852;23;20028;-76
2022/07/31 02:06:18;;;;;;;5.75;3.08;;;;;;;17.97;100.00;101704.19;6182658;23;20033;-76
2022/07/31 02:08:50;;;;;;;3.13;2.83;;;;;;;17.95;100.00;101703.34;6155935;23;20032;-77
2022/07/31 02:11:20;;;;;;;3.50;3.17;;;;;;;17.93;100.00;101702.47;6176742;23;20013;-77
2022/07/31 02:13:50;;;;;;;4.70;3.15;;;;;;;17.91;100.00;101705.16;6158814;23;20025;-76
2022/07/31 02:16:20;;;;;;;6.37;3.13;;;;;;;17.90;100.00;101698.09;6184883;23;20021;-77
2022/07/31 02:18:54;;;;;;;4.75;3.40;;;;;;;17.88;100.00;101701.66;6174997;23;20120;-76
2022/07/31 02:21:25;;;;;;;4.60;3.45;;;;;;;17.87;100.00;101698.13;6184671;23;20447;-77
2022/07/31 02:23:53;;;;;;;5.97;3.35;;;;;;;17.87;100.00;101702.56;6154853;23;20017;-76
2022/07/31 02:26:26;;;;;;;3.72;3.33;;;;;;;17.86;100.00;101690.13;6185137;23;20028;-77
2022/07/31 02:28:55;;;;;;;4.90;3.22;;;;;;;17.85;100.00;101696.38;6122002;23;20237;-77
2022/07/31 02:31:29;;;;;;;8.48;3.90;;;;;;;17.84;100.00;101695.47;6175975;23;20466;-76
2022/07/31 02:33:58;;;;;;;3.30;3.03;;;;;;;17.85;100.00;101693.72;6179068;23;20024;-76
2022/07/31 02:36:29;;;;;;;4.72;3.25;;;;;;;17.86;100.00;101695.47;6179301;23;20028;-77
2022/07/31 02:38:57;;;;;;;4.97;3.28;;;;;;;17.87;100.00;101691.91;6154700;23;20127;-77
2022/07/31 02:41:26;;;;;;;11.52;4.03;;;;;;;17.87;100.00;101698.13;6174405;23;20024;-77
2022/07/31 02:43:55;;;;;;;5.68;3.80;;;;;;;17.87;100.00;101690.13;6158553;23;20020;-77
2022/07/31 02:46:26;;;;;;;4.55;3.17;;;;;;;17.87;100.00;101695.44;6184060;23;20030;-76
2022/07/31 02:48:55;;;;;;;;;;;;;;;17.87;100.00;101686.59;6179458;23;20154;-77
2022/07/31 02:51:24;;;;;;;3.78;3.40;;;;;;;17.86;100.00;101688.38;6154541;23;19916;-77
2022/07/31 02:53:54;;;;;;;5.88;3.75;;;;;;;17.85;100.00;101686.59;6169026;23;20290;-76
2022/07/31 02:56:28;;;;;;;3.95;3.58;;;;;;;17.85;100.00;101673.25;6174844;23;20024;-77
2022/07/31 02:58:57;;;;;;;5.53;4.05;;;;;;;17.84;100.00;101682.16;6178438;23;20025;-77
2022/07/31 03:01:34;;;;;;;5.50;3.88;;;;;;;17.82;100.00;101675.06;6131722;23;20021;-77
2022/07/31 03:04:03;;;;;;;4.50;3.55;;;;;;;17.81;100.00;101679.50;6179475;23;20223;-76
2022/07/31 03:06:31;;;;;;;5.40;3.38;;;;;;;17.80;100.00;101671.53;6175996;23;20028;-77
2022/07/31 03:09:00;;;;;;;5.95;3.60;;;;;;;17.79;100.00;101672.41;6178709;23;20020;-76
2022/07/31 03:11:30;;;;;;;;;;;;;;;17.77;100.00;101660.91;6180169;23;20024;-77
2022/07/31 03:14:02;;;;;;;4.85;3.58;;;;;;;17.76;100.00;101662.69;6178149;23;20189;-77
2022/07/31 03:16:31;;;;;;;4.93;3.75;;;;;;;17.76;100.00;101659.16;6164522;23;20032;-76
2022/07/31 03:19:03;;;;;;;6.20;3.47;;;;;;;17.73;100.00;101657.38;6121723;23;20021;-75
2022/07/31 03:21:31;;;;;;;5.47;3.58;;;;;;;17.73;100.00;101654.72;6183448;23;20028;-76
2022/07/31 03:24:02;;;;;;;4.88;3.78;;;;;;;17.74;100.00;101659.16;6175185;23;20298;-75
2022/07/31 03:26:31;;;;;;;6.55;3.45;;;;;;;17.73;100.00;101655.63;6184021;23;20351;-76
2022/07/31 03:29:01;;;;;;;8.88;3.83;;;;;;;17.72;100.00;101642.31;6178934;23;20020;-76
2022/07/31 03:31:29;;;;;;;3.45;2.88;;;;;;;17.71;100.00;101643.19;6161796;23;20025;-76
2022/07/31 03:33:58;;;;;;;4.28;3.17;;;;;;;17.70;100.00;101641.47;6178370;23;20021;-75
2022/07/31 03:36:28;;;;;;;4.82;3.63;;;;;;;17.69;100.00;101634.34;6183577;23;20027;-75
2022/07/31 03:38:56;;;;;;;3.92;3.63;;;;;;;17.68;100.00;101638.81;6173141;23;20032;-76
2022/07/31 03:41:34;;;;;;;3.90;3.50;;;;;;;17.67;100.00;101628.16;6160980;23;20354;-76
2022/07/31 03:44:03;;;;;;;4.13;3.50;;;;;;;17.65;100.00;101633.50;6179068;23;20013;-76
2022/07/31 03:46:32;;;;;;;4.97;3.30;;;;;;;17.64;100.00;101621.09;6163903;23;20024;-75
2022/07/31 03:49:01;;;;;;;3.40;3.10;;;;;;;17.63;100.00;101627.31;6179265;23;20217;-75
2022/07/31 03:51:33;;;;;;;6.13;3.30;;;;;;;17.61;100.00;101623.78;6184463;23;20021;-76
2022/07/31 03:54:02;;;;;;;6.00;3.50;;;;;;;17.59;100.00;101627.41;6174298;23;20218;-76
2022/07/31 03:56:46;;;;;;;3.70;3.30;;;;;;;17.60;100.00;101642.47;6173068;23;20025;-75
2022/07/31 03:59:18;;;;;;;4.13;3.30;;;;;;;17.59;100.00;101627.41;6173268;23;20025;-76
2022/07/31 04:01:48;;;;;;;4.63;3.20;;;;;;;17.59;100.00;101622.06;6163801;23;20017;-76
2022/07/31 04:04:50;;;;;;;4.63;3.40;;;;;;;17.60;100.00;101626.47;6178643;23;20346;-76
2022/07/31 04:07:18;;;;;;;4.93;3.58;;;;;;;17.61;100.00;101630.91;6177858;23;20020;-75
2022/07/31 04:09:47;;;;;;;5.47;3.58;;;;;;;17.62;100.00;101627.38;6179628;23;20044;-75
2022/07/31 04:12:16;;;;;;;4.90;4.07;;;;;;;17.62;100.00;101624.69;6133494;23;20025;-75
2022/07/31 04:14:45;;;;;;;4.03;3.20;;;;;;;17.62;100.00;101627.38;6172487;23;20024;-76
2022/07/31 04:17:13;;;;;;;4.38;3.30;;;;;;;17.62;100.00;101628.25;6147069;23;20032;-76
2022/07/31 04:19:42;;;;;;;7.03;3.25;;;;;;;17.63;100.00;101629.97;6160871;23;20024;-75
2022/07/31 04:22:10;;;;;;;4.30;3.35;;;;;;;17.65;100.00;101627.31;6175947;23;20025;-75
2022/07/31 04:24:39;;;;;;;6.53;3.85;;;;;;;17.66;100.00;101637.06;6182113;23;20013;-78
2022/07/31 04:27:08;;;;;;;6.00;3.38;;;;;;;17.67;100.00;101633.50;6171886;23;20066;-76
2022/07/31 04:29:44;;;;;;;7.47;3.42;;;;;;;17.68;100.00;101630.81;6157458;23;20554;-75
2022/07/31 04:32:12;;;;;;;3.67;3.13;;;;;;;17.68;100.00;101632.59;6181357;23;20686;-76
2022/07/31 04:34:50;;;;;;;3.70;3.33;;;;;;;17.68;100.00;101624.59;6147817;23;20244;-76
2022/07/31 04:37:22;;;;;;;4.30;3.00;;;;;;;17.69;100.00;101623.69;6166928;23;20025;-75
2022/07/31 04:39:51;;;;;;;3.38;3.00;;;;;;;17.69;100.00;101623.69;6178233;23;20028;-76
2022/07/31 04:42:20;;;;;;;3.83;3.30;;;;;;;17.69;100.00;101621.03;6185173;23;20028;-75
2022/07/31 04:44:48;;;;;;;5.95;3.55;;;;;;;17.68;100.00;101619.28;6178751;23;20021;-76
2022/07/31 04:47:17;;;;;;;6.10;3.65;;;;;;;17.69;100.00;101618.34;6158362;23;20465;-76
2022/07/31 04:49:49;;;;;;;8.63;3.03;;;;;;;17.72;100.00;101610.31;6156638;23;20032;-75
2022/07/31 04:52:18;;;;;;;3.97;3.30;;;;;;;17.75;100.00;101612.97;6182921;23;20021;-75
2022/07/31 04:54:48;;;;;;;6.00;3.75;;;;;;;17.82;100.00;101609.28;6174190;23;20017;-75
2022/07/31 04:57:17;;;;;;;3.47;2.97;;;;;;;17.89;100.00;101611.00;6174831;23;20021;-77
2022/07/31 04:59:49;;;;;;;3.65;2.95;;;;;;;18.00;100.00;101610.84;6178995;23;20013;-75
2022/07/31 05:02:31;;;;;;;8.18;3.80;;;;;;;18.10;100.00;101615.09;6183227;23;20359;-75
2022/07/31 05:05:00;;;;;;;7.38;3.42;;;;;;;18.19;100.00;101618.56;6159322;23;20245;-75
2022/07/31 05:07:34;;;;;;;5.75;3.13;;;;;;;18.29;100.00;101622.81;6159865;23;20351;-75
2022/07/31 05:10:08;;;;;;;9.52;3.47;;;;;;;18.37;100.00;101618.22;6143316;23;20569;-75
2022/07/31 05:12:36;;;;;;;6.68;3.55;;;;;;;18.40;100.00;101617.31;6157660;23;20324;-75
2022/07/31 05:15:06;;;;;;;4.13;3.40;;;;;;;18.39;100.00;101607.53;6179649;23;20013;-76
2022/07/31 05:17:34;;;;;;;6.75;3.47;;;;;;;18.37;100.00;101606.69;6178545;23;20025;-76
2022/07/31 05:20:41;;;;;;;10.43;3.70;;;;;;;18.34;100.00;101596.06;6164171;23;20032;-75
2022/07/31 05:23:35;;;;;;;6.05;4.45;;;;;;;18.35;100.00;101597.81;6135602;23;20024;-76
2022/07/31 05:26:14;;;;;;;8.32;3.60;;;;;;;18.36;100.00;101605.81;6179068;23;20021;-76
2022/07/31 05:28:43;;;;;;;4.43;3.60;;;;;;;18.38;100.00;101598.66;6180594;23;20013;-75
2022/07/31 05:31:14;;;;;;;;;;;;;;;18.42;100.00;101604.81;6157764;23;20040;-75
2022/07/31 05:33:44;;;;;;;4.50;3.63;;;;;;;18.51;100.00;101597.53;6180334;23;19923;-75
2022/07/31 05:36:13;;;;;;;7.18;4.20;;;;;;;18.82;100.00;101590.78;6182981;23;20150;-75
2022/07/31 05:38:42;;;;;;;4.57;3.30;;;;;;;18.99;100.00;101588.63;6157732;23;20073;-75
2022/07/31 05:41:39;;;;;;;7.07;4.38;;;;;;;19.23;100.00;101586.41;6120806;23;20352;-75
2022/07/31 05:44:17;;;;;;;7.00;4.60;;;;;;;19.41;100.00;101580.66;6176289;23;20020;-76
2022/07/31 05:46:47;;;;;;;7.97;3.50;;;;;;;19.52;100.00;101576.84;6181049;23;20342;-76
2022/07/31 05:49:15;;;;;;;5.05;3.42;;;;;;;19.57;100.00;101580.31;6183904;23;20024;-76
2022/07/31 05:51:52;;;;;;;5.82;3.30;;;;;;;19.58;100.00;101574.03;6167726;23;20021;-75
2022/07/31 05:54:21;;;;;;;4.57;3.30;;;;;;;19.59;100.00;101570.47;6160242;23;20020;-76
2022/07/31 05:57:08;;;;;;;6.72;3.90;;;;;;;19.58;100.00;101574.91;6157495;23;20620;-76
2022/07/31 05:59:41;;;;;;;4.93;3.88;;;;;;;19.58;100.00;101569.56;6147446;23;20025;-76
2022/07/31 06:02:09;;;;;;;7.88;4.93;;;;;;;19.57;100.00;101574.97;6181538;23;20198;-75
2022/07/31 06:04:58;;;;;;;5.38;3.63;;;;;;;19.58;100.00;101576.72;6170124;23;20555;-75
2022/07/31 06:07:28;;;;;;;4.40;3.70;;;;;;;19.57;100.00;101575.84;6162441;23;20363;-76
2022/07/31 06:09:57;;;;;;;5.55;3.67;;;;;;;19.57;100.00;101573.16;6173463;23;20438;-76
2022/07/31 06:12:25;;;;;;;5.43;3.85;;;;;;;19.59;100.00;101576.69;6185476;23;20024;-76
2022/07/31 06:14:54;;;;;;;5.28;3.90;;;;;;;19.62;100.00;101571.28;6154861;23;20238;-76
2022/07/31 06:17:41;;;;;;;6.88;3.63;;;;;;;19.64;100.00;101576.56;6183618;23;20350;-75
2022/07/31 06:20:23;;;;;;;7.07;4.00;;;;;;;19.65;100.00;101564.97;6183723;23;20025;-75
2022/07/31 06:22:53;;;;;;;6.80;3.78;;;;;;;19.68;100.00;101570.25;6157707;23;20032;-75
2022/07/31 06:25:23;;;;;;;7.00;3.80;;;;;;;19.71;100.00;101570.16;6171249;23;20369;-76
2022/07/31 06:27:51;;;;;;;5.72;3.60;;;;;;;19.74;100.00;101564.78;6175964;23;20024;-76
2022/07/31 06:30:28;;;;;;;6.65;3.63;;;;;;;19.78;100.00;101578.97;6170286;23;20021;-75
2022/07/31 06:32:56;;;;;;;4.78;3.35;;;;;;;19.79;100.00;101567.34;6178579;23;20017;-76
2022/07/31 06:35:26;;;;;;;4.47;3.95;;;;;;;19.83;100.00;101569.91;6176795;23;20009;-76
2022/07/31 06:38:14;;;;;;;7.78;3.67;;;;;;;19.90;100.00;101572.44;6146581;23;20024;-76
2022/07/31 06:41:09;;;;;;;7.45;3.65;;;;;;;19.94;100.00;101574.13;6168135;23;20295;-76
2022/07/31 06:43:48;;;;;;;9.48;3.28;;;;;;;20.00;100.00;101568.59;6180102;23;20359;-75
2022/07/31 06:46:35;;;;;;;4.57;3.10;;;;;;;20.08;100.00;101568.44;6184920;23;20115;-76
2022/07/31 06:49:35;;;;;;;5.65;3.40;;;;;;;20.14;100.00;101558.47;6176125;23;20028;-76
2022/07/31 06:52:04;;;;;;;6.15;3.30;;;;;;;20.18;100.00;101546.75;6169946;23;20368;-76
2022/07/31 06:54:33;;;;;;;6.90;3.83;;;;;;;20.22;99.62;101551.09;6138361;23;20490;-76
2022/07/31 06:57:03;;;;;;;4.65;3.15;;;;;;;20.28;99.45;101552.75;6173947;23;20212;-76
2022/07/31 06:59:31;;;;;;;5.53;2.90;;;;;;;20.33;99.00;101545.47;6183677;23;20017;-76
2022/07/31 07:02:08;;;;;;;3.20;2.90;;;;;;;20.37;98.00;101543.59;6181173;23;20020;-76
2022/07/31 07:04:37;;;;;;;6.82;3.35;;;;;;;20.40;97.69;101538.19;6182842;23;20021;-76
2022/07/31 07:07:25;;;;;;;6.82;3.17;;;;;;;20.45;97.67;101536.22;6184070;23;20013;-76
2022/07/31 07:10:00;;;;;;;8.63;3.10;;;;;;;20.48;97.65;101535.28;6159171;23;20367;-76
2022/07/31 07:12:47;;;;;;;3.63;3.00;;;;;;;20.50;97.29;101538.81;6174464;23;20343;-76
2022/07/31 07:15:16;;;;;;;4.97;2.70;;;;;;;20.49;97.16;101539.72;6183094;23;20459;-76
2022/07/31 07:17:44;;;;;;;4.75;2.83;;;;;;;20.49;96.98;101537.94;6146218;23;20447;-76
2022/07/31 07:20:17;;;;;;;5.50;3.00;;;;;;;20.47;96.68;101533.53;6147880;23;20028;-76
2022/07/31 07:22:46;;;;;;;4.85;2.70;;;;;;;20.44;96.57;101527.34;6155114;23;20028;-75
2022/07/31 07:25:25;;;;;;;6.13;3.90;;;;;;;20.44;96.12;101529.13;6150741;23;20032;-76
2022/07/31 07:27:56;;;;;;;2.88;2.60;;;;;;;20.42;95.53;101523.81;6163616;23;20568;-76
2022/07/31 07:30:27;;;;;;;2.80;2.60;;;;;;;20.42;95.18;101515.78;6173467;23;20021;-76
2022/07/31 07:33:00;;;;;;;7.78;2.90;;;;;;;20.43;95.23;101522.00;6178030;23;20028;-76
2022/07/31 07:35:30;;;;;;;10.70;3.40;;;;;;;20.42;94.83;101515.78;6179323;23;20025;-76
2022/07/31 07:38:07;;;;;;;5.40;3.00;;;;;;;20.43;94.80;101508.63;6175544;23;20301;-75
2022/07/31 07:40:37;;;;;;;2.72;2.50;;;;;;;20.45;94.46;101509.47;6150300;23;20490;-76
2022/07/31 07:43:05;;;;;;;3.13;2.83;;;;;;;20.45;94.06;101506.78;6174898;23;20124;-76
2022/07/31 07:45:34;;;;;;;3.05;2.75;;;;;;;20.44;93.65;101497.03;6147987;23;20025;-76
2022/07/31 07:48:03;;;;;;;5.78;2.70;;;;;;;20.44;93.79;101497.03;6178988;23;20052;-76
2022/07/31 07:50:53;;;;;;;6.57;3.05;;;;;;;20.47;93.85;101493.38;6180029;23;20017;-76
2022/07/31 07:53:32;;;;;;;2.90;2.70;;;;;;;20.45;93.40;101496.06;6185787;23;20024;-76
2022/07/31 07:56:09;;;;;;;3.45;2.30;;;;;;;20.48;93.85;101497.81;6150930;23;20043;-75
2022/07/31 07:59:01;;;;;;;5.90;3.15;;;;;;;20.50;93.58;101490.63;6148033;23;20238;-76
2022/07/31 08:01:48;;;;;;;4.13;3.10;;;;;;;20.54;93.92;101487.78;6179673;23;20021;-76
2022/07/31 08:04:27;;;;;;;3.75;3.00;;;;;;;20.58;93.61;101483.22;6182779;23;20020;-75
2022/07/31 08:06:55;;;;;;;6.43;2.78;;;;;;;20.65;93.97;101484.84;6177259;23;20048;-75
2022/07/31 08:09:26;;;;;;;3.20;2.80;;;;;;;20.69;93.48;101496.34;6182919;23;20020;-75
2022/07/31 08:12:13;;;;;;;6.35;3.53;;;;;;;20.75;93.49;101485.47;6158710;23;20024;-76
2022/07/31 08:15:01;;;;;;;3.63;3.00;;;;;;;20.78;92.97;101488.06;6160154;23;20020;-75
2022/07/31 08:17:59;;;;;;;5.22;3.30;;;;;;;20.81;93.02;101487.94;6161557;23;20028;-76
2022/07/31 08:20:28;;;;;;;7.95;3.42;;;;;;;20.85;92.89;101489.66;6166485;23;20017;-76
2022/07/31 08:22:56;;;;;;;4.75;3.08;;;;;;;20.89;92.83;101479.69;6182144;23;20347;-76
2022/07/31 08:25:25;;;;;;;5.45;3.15;;;;;;;20.98;92.86;101487.44;6180197;23;20021;-76
2022/07/31 08:28:02;;;;;;;3.83;3.45;;;;;;;21.08;92.85;101496.09;6160206;23;20013;-76
2022/07/31 08:30:34;;;;;;;3.88;3.05;;;;;;;21.18;92.35;101486.84;6172000;23;20032;-76
2022/07/31 08:33:03;;;;;;;5.63;3.10;;;;;;;21.32;92.88;101503.41;6182151;23;20350;-76
2022/07/31 08:35:35;;;;;;;4.10;3.50;;;;;;;21.44;92.26;101496.81;6164045;23;20234;-76
2022/07/31 08:38:04;;;;;;;4.25;3.03;;;;;;;21.60;91.95;101495.34;6176198;23;20024;-76
2022/07/31 08:40:40;;;;;;;7.00;3.28;;;;;;;21.72;91.53;101490.53;6175582;23;20371;-76
2022/07/31 08:43:12;;;;;;;5.78;3.60;;;;;;;21.82;91.03;101493.81;6126703;23;20021;-76
2022/07/31 08:46:03;;;;;;;7.07;3.28;;;;;;;21.95;91.05;101487.97;6177245;23;20021;-76
2022/07/31 08:48:39;;;;;;;4.22;3.13;;;;;;;22.01;90.48;101486.88;6179600;23;20021;-76
2022/07/31 08:51:11;;;;;;;3.05;2.80;;;;;;;22.06;90.27;101492.06;6182817;23;20027;-76
2022/07/31 08:53:59;;;;;;;5.25;2.97;;;;;;;22.10;89.31;101499.09;6171425;23;20072;-76
2022/07/31 08:56:29;;;;;;;7.80;3.42;;;;;;;22.09;88.93;101494.66;6183171;23;20028;-76
2022/07/31 08:59:02;;;;;;;5.60;3.95;;;;;;;22.09;89.34;101500.88;6156898;23;20147;-76
2022/07/31 09:01:35;;;;;;;8.68;4.70;;;;;;;22.05;88.95;101501.06;6178616;23;20013;-76
2022/07/31 09:04:03;;;;;;;3.75;3.45;;;;;;;21.96;88.82;101499.56;6177486;23;20017;-76
2022/07/31 09:06:32;;;;;;;4.57;3.40;;;;;;;21.91;89.60;101496.16;6182145;23;20455;-76
2022/07/31 09:09:00;;;;;;;4.60;3.05;;;;;;;21.88;89.43;101488.22;6145585;23;20017;-76
2022/07/31 09:11:30;;;;;;;6.30;3.53;;;;;;;21.82;89.28;101480.38;6182152;23;20021;-76
2022/07/31 09:14:34;;;;;;;5.05;4.25;;;;;;;21.73;88.80;101490.47;6181318;23;20025;-76
2022/07/31 09:17:14;;;;;;;11.15;4.20;;;;;;;21.61;89.14;101491.75;6163150;23;20017;-76
2022/07/31 09:19:44;;;;;;;6.40;4.20;;;;;;;21.51;90.62;101493.00;6179282;23;20127;-76
2022/07/31 09:22:30;;;;;;;6.72;4.15;;;;;;;21.41;90.51;101495.03;6181777;23;20024;-75
2022/07/31 09:25:08;;;;;;;9.40;4.20;;;;;;;21.33;91.75;101498.91;6148203;23;20044;-76
2022/07/31 09:27:38;;;;;;;5.38;4.82;;;;;;;21.25;93.37;101501.84;6171754;23;20013;-76
2022/07/31 09:30:08;;;;;;;5.07;4.63;;;;;;;21.15;94.52;101500.34;6158507;23;20150;-76
2022/07/31 09:33:20;;;;;;;7.68;5.20;;;;;;;21.02;95.76;101495.38;6138750;23;20561;-76
2022/07/31 09:36:08;;;;;;;7.70;5.80;;;;;;;20.88;97.02;101492.22;6164913;23;20017;-77
2022/07/31 09:38:39;;;;;;;;;;;;;;;20.78;98.73;101491.59;6171542;23;20134;-76
2022/07/31 09:41:27;;;;;;;8.05;5.40;;;;;;;20.73;99.68;101500.69;6193417;23;20424;-76
2022/07/31 09:44:22;;;;;;;7.82;5.93;;;;;;;20.68;100.00;101490.13;6172998;23;20040;-76
2022/07/31 09:46:53;;;;;;;6.90;5.95;;;;;;;20.62;100.00;101492.97;6160440;23;20355;-76
2022/07/31 09:49:30;;;;;;;7.93;6.65;;;;;;;20.60;100.00;101497.50;6177952;23;20028;-76
2022/07/31 09:51:59;;;;;;;7.05;6.35;;;;;;;20.59;100.00;101491.22;6182026;23;20021;-76
2022/07/31 09:54:33;;;;;;;10.60;7.20;;;;;;;20.58;100.00;101488.59;6161622;23;20017;-76
2022/07/31 09:57:14;;;;;;;12.73;7.13;;;;;;;20.57;100.00;101486.84;6174941;23;20021;-77
2022/07/31 09:59:46;;;;;;;9.90;7.22;;;;;;;20.55;100.00;101486.88;6181841;23;20026;-76
2022/07/31 10:02:17;;;;;;;15.85;8.52;;;;;;;20.56;100.00;101485.94;6158343;23;20332;-76
2022/07/31 10:04:49;;;;;;;9.02;7.00;;;;;;;20.55;100.00;101483.34;6182588;23;20025;-77
2022/07/31 10:07:19;;;;;;;7.95;7.22;;;;;;;20.55;100.00;101491.38;6169369;23;20032;-76
2022/07/31 10:10:06;;;;;;;11.88;7.57;;;;;;;20.53;100.00;101488.72;6166909;23;20450;-77
2022/07/31 10:12:47;;;;;;;8.77;7.10;;;;;;;20.46;100.00;101487.13;6172121;23;20024;-76
2022/07/31 10:15:17;;;;;;;8.60;7.68;;;;;;;20.41;100.00;101491.75;6137647;23;20032;-76
2022/07/31 10:17:55;;;;;;;8.85;6.95;;;;;;;20.36;100.00;101488.31;6160010;23;20021;-75
2022/07/31 10:20:41;;;;;;;10.27;7.30;;;;;;;20.35;100.00;101483.88;6175577;23;20235;-77
2022/07/31 10:23:29;;;;;;;12.40;7.65;;;;;;;20.32;100.00;101489.31;6176848;23;20039;-76
2022/07/31 10:26:05;;;;;;;10.55;7.82;;;;;;;20.29;100.00;101490.28;6181720;23;20032;-76
2022/07/31 10:28:37;;;;;;;8.55;7.68;;;;;;;20.28;100.00;101484.97;6178978;23;20013;-77
2022/07/31 10:31:06;;;;;;;11.25;8.13;;;;;;;20.27;100.00;101483.22;6177563;23;20014;-76
2022/07/31 10:33:35;;;;;;;12.38;8.25;;;;;;;20.24;100.00;101479.72;6158604;23;20111;-76
2022/07/31 10:36:36;;;;;;;14.40;8.70;;;;;;;20.23;100.00;101477.94;6180158;23;20024;-76
2022/07/31 10:39:42;;;;;;;9.52;8.60;;;;;;;20.21;100.00;101474.44;6168937;23;20231;-75
2022/07/31 10:42:42;;;;;;;8.50;7.70;;;;;;;20.18;100.00;101473.63;6157695;23;20446;-76
2022/07/31 10:45:12;;;;;;;12.38;8.07;;;;;;;20.15;100.00;101473.69;6143513;23;20474;-76
2022/07/31 10:47:59;;;;;;;9.32;8.35;;;;;;;20.14;100.00;101470.16;6163590;23;20017;-75
2022/07/31 10:51:02;;;;;;;10.77;9.35;;;;;;;20.13;100.00;101467.53;6183271;23;20490;-77
2022/07/31 10:54:00;;;;;;;10.73;9.02;;;;;;;20.12;100.00;101463.97;6150921;23;20040;-76
2022/07/31 10:56:48;;;;;;;17.02;10.07;;;;;;;20.12;100.00;101461.31;6185464;23;20324;-78
2022/07/31 10:59:36;;;;;;;12.10;10.23;;;;;;;20.13;100.00;101459.50;6181735;23;20246;-78
2022/07/31 11:02:33;;;;;;;14.80;11.27;;;;;;;20.12;100.00;101460.44;6162266;23;20036;-75
2022/07/31 11:05:33;;;;;;;10.70;9.35;;;;;;;20.10;100.00;101448.91;6121938;23;20025;-77
2022/07/31 11:08:43;;;;;;;14.00;11.45;;;;;;;20.07;100.00;101447.16;6172826;23;20013;-77
2022/07/31 11:11:34;;;;;;;12.43;9.75;;;;;;;20.06;100.00;101443.63;6172113;23;20017;-77
2022/07/31 11:14:33;;;;;;;11.70;10.50;;;;;;;20.03;100.00;101449.03;6150560;23;20474;-75
2022/07/31 11:17:38;;;;;;;13.13;10.63;;;;;;;20.02;100.00;101443.75;6176560;23;20016;-76
2022/07/31 11:20:32;;;;;;;13.93;9.65;;;;;;;19.98;100.00;101442.94;6179841;23;20024;-76
2022/07/31 11:23:04;;;;;;;16.50;11.60;;;;;;;20.00;100.00;101437.53;6171141;23;20052;-76
2022/07/31 11:25:36;;;;;;;15.40;13.77;;;;;;;19.96;100.00;101436.78;6179602;23;20028;-76
2022/07/31 11:28:20;;;;;;;14.82;11.80;;;;;;;19.93;100.00;101436.84;6180427;23;20028;-76
2022/07/31 11:30:52;;;;;;;16.45;13.00;;;;;;;19.91;100.00;101427.97;6171336;23;20044;-76
2022/07/31 11:33:41;;;;;;;13.77;12.38;;;;;;;19.89;100.00;101426.28;6159399;23;20024;-76
2022/07/31 11:36:23;;;;;;;14.70;12.45;;;;;;;19.87;100.00;101423.63;6182018;23;20013;-75
2022/07/31 11:38:56;;;;;;;14.55;13.07;;;;;;;19.82;100.00;101418.38;6170805;23;20009;-76
2022/07/31 11:41:29;;;;;;;16.13;14.07;;;;;;;19.76;100.00;101415.00;6180564;23;20029;-76
2022/07/31 11:44:11;;;;;;;15.02;12.93;;;;;;;19.70;100.00;101424.03;6158083;23;20021;-75
2022/07/31 11:46:39;;;;;;;13.02;11.82;;;;;;;19.64;100.00;101421.50;6145153;23;20021;-75
2022/07/31 11:49:20;;;;;;;14.40;12.05;;;;;;;19.58;100.00;101421.66;6140028;23;20559;-77
2022/07/31 11:52:12;;;;;;;17.52;12.90;;;;;;;19.55;100.00;101421.75;6169623;23;20707;-75
2022/07/31 11:55:07;;;;;;;15.95;13.02;;;;;;;19.53;100.00;101415.53;6161588;23;20032;-76
2022/07/31 11:57:38;;;;;;;14.00;12.50;;;;;;;19.49;100.00;101412.09;6170592;23;20044;-77
2022/07/31 12:00:20;;;;;;;15.32;13.10;;;;;;;19.48;100.00;101413.88;6172253;23;20028;-75